Aviation Digital Data Service (ADDS)

Output produced by METARs form (0731 UTC 24 March 2019)
found at http://www.aviationweather.gov/metar/data/
 
UMBB 240700Z 33006G09MPS 7000 NSC 06/M00 Q1022 R29/CLRD// NOSIG
TAF UMBB 240505Z 2406/2415 29005G10MPS 6000 BKN010 SCT015CB 
     TEMPO 2406/2414 32007G12MPS 3000 -SHRA BR BKN007 
       
UMGG 240700Z 26006MPS 9999 BKN023CB OVC100 04/M03 Q1015 R28/D NOSIG
TAF UMGG 240500Z 2406/2506 24005MPS 6000 BKN015 
     TEMPO 2406/2409 26006G11MPS 1200 SHRASN BKN005 BKN015CB 
     FM240900 30006G11MPS 9999 BKN020 
     TEMPO 2409/2418 32009G14MPS 
     BECMG 2418/2420 28005MPS 
     TEMPO 2420/2506 VRB02MPS 2000 BR BKN005
       
UMMG 240700Z 31009G12MPS CAVOK 04/M00 Q1021 R35/CLRD// NOSIG
TAF UMMG 240430Z 2405/2415 30005G10MPS 8000 SCT020 
     TEMPO 2405/2409 32008G13MPS 2100 -SHRA BR BKN007 BKN010CB
       
UMMS 240700Z 30006G09MPS 260V320 9999 SCT018 06/02 Q1016 R31/D NOSIG
TAF AMD UMMS 240631Z 2406/2506 30006G11MPS 9999 BKN020 
     TEMPO 2406/2418 31011G16MPS 
     BECMG 2418/2419 27005MPS BKN010 
     TEMPO 2419/2506 1200 BR BKN003
       
UMOO 240700Z 32006G09MPS 8000 NSC 06/04 Q1013 NOSIG
TAF UMOO 240500Z 2406/2415 26005G10MPS 8000 BKN020 
     TEMPO 2406/2415 31007G12MPS 2100 -SHRA BR BKN005 BKN015CB